Rising Fawn, Georgia
Current Conditions -  °F | °C
As of 3:15 PM on Monday 26 Jan 2015 (Local Time) from K4A9 Reporting Station
Overcast Overcast  
Wind Chill: -2°   Ceiling: 2400
Heat Index:   Visibility: 10mi
Dew Point: -3°   Wind: 8mph
Humidity: 70%   Direction: 310°NW
Pressure: 29.93"   Gusts: 17mph
Location:  34.76°N, 85.53°W
Report Text: K4A9 262015Z AUTO 31007G15KT 270V350 10SM OVC024 02/M03 A2993 RMK AO2
Loading
Personal Weather Stations






























Interactive Weather Map New forecast layout! Learn more

10-Day Weather Forecast

Advertisements
Track Severe Weather on mobile